Time;durP1;ratioP1;P1;durP2;ratioP2;P2;SDS_P1;SDS_P2;PMS_P1;PMS_P2;Temp;Humidity;BMP_temperature;BMP_pressure;BME280_temperature;BME280_humidity;BME280_pressure;Samples;Min_cycle;Max_cycle;Signal;HPM_P1;HPM_P2
2023/01/12 00:01:55;;;;;;;11.80;2.10;;;;;;;10.41;71.05;100813.75;5028723;28;20987;-69
2023/01/12 00:04:23;;;;;;;15.90;2.67;;;;;;;10.47;70.94;100809.69;5027279;28;20267;-71
2023/01/12 00:06:51;;;;;;;16.40;2.30;;;;;;;10.54;70.53;100805.53;5024851;28;20256;-72
2023/01/12 00:09:19;;;;;;;9.30;1.97;;;;;;;10.53;70.37;100814.47;5027035;28;20212;-72
2023/01/12 00:11:47;;;;;;;8.47;2.10;;;;;;;10.49;70.31;100815.69;5029257;28;20244;-69
2023/01/12 00:14:14;;;;;;;10.70;2.20;;;;;;;10.48;70.58;100808.72;5032257;28;21018;-69
2023/01/12 00:16:43;;;;;;;7.77;1.83;;;;;;;10.53;70.24;100798.56;5027342;28;20289;-71
2023/01/12 00:19:14;;;;;;;12.57;2.57;;;;;;;10.56;70.36;100785.81;5031801;28;20335;-71
2023/01/12 00:21:54;;;;;;;8.13;1.50;;;;;;;10.57;70.05;100789.31;5030796;28;20242;-70
2023/01/12 00:24:23;;;;;;;11.73;2.03;;;;;;;10.61;70.03;100792.53;5029258;28;20221;-70
2023/01/12 00:26:53;;;;;;;13.83;2.57;;;;;;;10.60;69.89;100781.09;5029218;28;20218;-68
2023/01/12 00:29:21;;;;;;;13.67;2.60;;;;;;;10.56;70.07;100782.34;5030833;28;20215;-68
2023/01/12 00:31:49;;;;;;;11.47;2.03;;;;;;;10.60;70.36;100775.78;5024763;28;20203;-70
2023/01/12 00:34:18;;;;;;;10.53;1.83;;;;;;;10.62;70.30;100779.16;5028009;28;20214;-67
2023/01/12 00:36:47;;;;;;;12.03;2.37;;;;;;;10.60;69.79;100767.84;5026364;28;20225;-67
2023/01/12 00:39:16;;;;;;;12.13;1.67;;;;;;;10.66;69.62;100764.63;5027247;28;20214;-71
2023/01/12 00:47:16;;;;;;;11.10;1.97;;;;;;;10.50;70.24;100765.19;5027246;28;20683;-68
2023/01/12 00:49:46;;;;;;;8.97;1.90;;;;;;;10.49;70.78;100770.63;5023032;28;20639;-70
2023/01/12 00:52:15;;;;;;;15.07;2.10;;;;;;;10.54;70.53;100779.00;5023248;28;20205;-68
2023/01/12 00:54:56;;;;;;;13.47;2.43;;;;;;;10.59;70.16;100789.19;5027773;28;20327;-67
2023/01/12 00:57:24;;;;;;;15.67;2.80;;;;;;;10.56;70.39;100777.88;5023399;28;20577;-70
2023/01/12 00:59:53;;;;;;;11.23;1.73;;;;;;;10.61;70.45;100782.78;5023106;28;20230;-72
2023/01/12 01:02:22;;;;;;;6.97;1.60;;;;;;;10.64;70.42;100785.16;5027952;28;20210;-70
2023/01/12 01:04:51;;;;;;;14.87;2.23;;;;;;;10.67;70.03;100781.38;5030549;28;20220;-67
2023/01/12 01:07:20;;;;;;;16.80;2.27;;;;;;;10.69;70.19;100779.41;5027809;28;20245;-71
2023/01/12 01:09:48;;;;;;;12.17;1.90;;;;;;;10.67;70.67;100792.81;5026634;28;20284;-69
2023/01/12 01:12:16;;;;;;;9.23;2.00;;;;;;;10.67;70.30;100782.19;5027038;28;20224;-70
2023/01/12 01:14:44;;;;;;;14.83;2.03;;;;;;;10.71;69.94;100785.41;5027124;28;20229;-70
2023/01/12 01:17:12;;;;;;;9.60;1.97;;;;;;;10.72;69.85;100779.97;5025144;28;20207;-67
2023/01/12 01:19:40;;;;;;;12.87;2.17;;;;;;;10.77;69.71;100792.81;5030369;28;20699;-70
2023/01/12 01:22:09;;;;;;;16.13;2.03;;;;;;;10.72;69.74;100795.91;5024294;28;20214;-69
2023/01/12 01:24:36;;;;;;;8.27;1.70;;;;;;;10.70;69.54;100803.16;5024977;28;20214;-70
2023/01/12 01:27:04;;;;;;;11.07;2.10;;;;;;;10.74;69.54;100809.81;5022877;28;20287;-70
2023/01/12 01:29:32;;;;;;;12.83;1.93;;;;;;;10.73;69.11;100812.66;5026353;28;21033;-69
2023/01/12 01:31:59;;;;;;;14.80;2.77;;;;;;;10.73;69.57;100818.75;5024558;28;20249;-69
2023/01/12 01:34:27;;;;;;;9.80;1.90;;;;;;;10.79;69.59;100818.22;5022005;28;20214;-70
2023/01/12 01:36:55;;;;;;;10.87;1.60;;;;;;;10.76;69.53;100804.38;5027678;28;20561;-70
2023/01/12 01:39:24;;;;;;;9.90;1.73;;;;;;;10.80;69.55;100811.94;5021943;28;20288;-70
2023/01/12 01:41:52;;;;;;;9.50;1.87;;;;;;;10.75;69.56;100794.75;5022447;28;20227;-70
2023/01/12 01:44:50;;;;;;;15.33;1.97;;;;;;;10.77;69.23;100793.66;5024054;28;20301;-69
2023/01/12 01:47:25;;;;;;;7.90;1.67;;;;;;;10.82;68.87;100775.47;5021581;28;20325;-70
2023/01/12 01:49:59;;;;;;;14.17;2.37;;;;;;;10.82;68.71;100774.63;5021196;28;20223;-70
2023/01/12 01:52:31;;;;;;;11.73;2.37;;;;;;;10.78;68.78;100771.44;5026325;28;20221;-67
2023/01/12 01:55:05;;;;;;;10.47;2.73;;;;;;;10.72;69.42;100772.03;5025140;28;20210;-70
2023/01/12 01:57:39;;;;;;;12.17;1.97;;;;;;;10.75;69.30;100766.41;5023121;28;20230;-70
2023/01/12 02:00:10;;;;;;;14.13;2.70;;;;;;;10.73;69.51;100776.31;5023251;28;20223;-69
2023/01/12 02:02:39;;;;;;;12.40;2.03;;;;;;;10.75;69.67;100770.88;5014475;28;20222;-67
2023/01/12 02:05:07;;;;;;;15.67;2.33;;;;;;;10.71;69.64;100765.03;5026968;28;20210;-69
2023/01/12 02:07:35;;;;;;;12.00;2.07;;;;;;;10.70;69.36;100759.88;5023446;28;20242;-71
2023/01/12 02:10:05;;;;;;;10.60;2.10;;;;;;;10.72;69.14;100755.28;5023049;28;20581;-67
2023/01/12 02:18:14;;;;;;;13.97;1.70;;;;;;;10.73;68.88;100749.78;5021913;28;20222;-69
2023/01/12 02:20:51;;;;;;;18.90;2.80;;;;;;;10.75;69.46;100753.16;5022902;28;20246;-70
2023/01/12 02:23:42;;;;;;;14.50;2.33;;;;;;;10.75;69.25;100737.25;5022994;28;20564;-71
2023/01/12 02:26:42;;;;;;;14.60;2.17;;;;;;;10.79;69.22;100732.50;5022236;28;20553;-69
2023/01/12 02:29:45;;;;;;;17.37;3.07;;;;;;;10.81;69.21;100741.16;5022556;28;20211;-71
2023/01/12 02:32:26;;;;;;;11.63;1.87;;;;;;;10.82;68.72;100725.06;5022419;28;20209;-74
2023/01/12 02:35:05;;;;;;;10.00;2.03;;;;;;;10.72;69.35;100726.94;5025095;28;20832;-67
2023/01/12 02:37:38;;;;;;;14.87;2.10;;;;;;;10.75;69.18;100736.41;5020694;28;20296;-69
2023/01/12 02:40:11;;;;;;;14.47;2.67;;;;;;;10.76;69.41;100746.88;5024542;28;20209;-69
2023/01/12 02:42:40;;;;;;;12.67;2.07;;;;;;;10.82;69.40;100725.06;5016122;28;20305;-68
2023/01/12 02:45:19;;;;;;;10.37;2.63;;;;;;;10.80;69.40;100726.22;5025768;28;20209;-67
2023/01/12 02:47:55;;;;;;;16.50;2.53;;;;;;;10.85;68.94;100718.66;5025264;28;20237;-67
2023/01/12 02:50:31;;;;;;;13.33;1.93;;;;;;;10.85;68.90;100727.44;5023413;28;20205;-70
2023/01/12 02:53:06;;;;;;;19.20;4.40;;;;;;;10.85;68.99;100734.56;5023677;28;20215;-70
2023/01/12 02:55:34;;;;;;;9.47;2.20;;;;;;;10.86;69.01;100725.63;5026560;28;20221;-70
2023/01/12 02:58:06;;;;;;;11.53;2.50;;;;;;;10.90;68.76;100727.03;5029403;28;20570;-69
2023/01/12 03:00:37;;;;;;;11.10;2.00;;;;;;;10.89;68.53;100712.94;5034732;28;20230;-71
2023/01/12 03:03:06;;;;;;;10.30;2.57;;;;;;;10.87;68.81;100720.19;5032279;28;20222;-67
2023/01/12 03:05:34;;;;;;;14.77;2.43;;;;;;;10.83;68.95;100718.78;5033750;28;20211;-71
2023/01/12 03:08:05;;;;;;;13.30;2.27;;;;;;;10.83;69.02;100724.09;5033562;28;20250;-70
2023/01/12 03:11:01;;;;;;;13.80;2.47;;;;;;;10.85;69.37;100716.00;5036593;28;20224;-68
2023/01/12 03:13:33;;;;;;;9.90;1.80;;;;;;;10.82;69.58;100706.50;5029172;28;20927;-70
2023/01/12 03:16:02;;;;;;;13.53;2.20;;;;;;;10.87;69.52;100714.03;5031749;28;20222;-71
2023/01/12 03:18:35;;;;;;;10.77;1.83;;;;;;;10.87;69.49;100711.38;5026232;28;20217;-68
2023/01/12 03:21:07;;;;;;;12.43;2.60;;;;;;;10.88;69.17;100708.59;5030401;28;20703;-71
2023/01/12 03:23:40;;;;;;;8.73;1.80;;;;;;;10.90;69.16;100714.59;5031930;28;20212;-68
2023/01/12 03:26:13;;;;;;;12.03;2.33;;;;;;;10.87;69.25;100709.56;5027558;28;20222;-71
2023/01/12 03:28:46;;;;;;;9.80;1.80;;;;;;;10.92;69.25;100717.94;5023846;28;20645;-71
2023/01/12 03:31:15;;;;;;;10.00;2.17;;;;;;;10.88;69.06;100695.34;5025947;28;20202;-70
2023/01/12 03:33:45;;;;;;;11.33;1.93;;;;;;;10.86;69.29;100691.16;5028360;28;20215;-68
2023/01/12 03:36:29;;;;;;;14.57;2.07;;;;;;;10.78;69.60;100689.22;5026065;28;20819;-68
2023/01/12 03:39:07;;;;;;;11.50;2.00;;;;;;;10.85;69.07;100695.59;5025465;28;20222;-70
2023/01/12 03:41:46;;;;;;;13.80;2.10;;;;;;;10.84;69.20;100688.63;5027358;28;20239;-71
2023/01/12 03:44:20;;;;;;;15.67;2.67;;;;;;;10.85;69.33;100673.56;5025118;28;20281;-70
2023/01/12 03:46:55;;;;;;;15.70;2.47;;;;;;;10.90;69.05;100682.75;5023660;28;20244;-70
2023/01/12 03:49:32;;;;;;;9.07;1.70;;;;;;;10.85;69.41;100684.16;5025553;28;20218;-67
2023/01/12 03:52:02;;;;;;;8.03;1.63;;;;;;;10.82;69.91;100689.75;5029744;28;20238;-71
2023/01/12 03:54:31;;;;;;;12.37;2.13;;;;;;;10.84;69.33;100687.78;5024508;28;20894;-69
2023/01/12 03:57:01;;;;;;;13.00;2.17;;;;;;;10.85;69.53;100678.84;5026002;28;20207;-70
2023/01/12 03:59:29;;;;;;;16.30;1.77;;;;;;;10.91;69.35;100687.06;5028068;28;20222;-70
2023/01/12 04:01:57;;;;;;;13.87;2.07;;;;;;;10.86;69.34;100678.72;5027401;28;20636;-69
2023/01/12 04:04:26;;;;;;;13.77;1.80;;;;;;;10.84;69.29;100683.31;5024913;28;20839;-68
2023/01/12 04:06:53;;;;;;;10.63;2.30;;;;;;;10.85;69.42;100681.50;5026922;28;20245;-70
2023/01/12 04:09:24;;;;;;;12.00;2.07;;;;;;;10.87;69.28;100679.56;5027305;28;20225;-71
2023/01/12 04:12:10;;;;;;;12.67;1.80;;;;;;;10.87;69.37;100677.75;5031162;28;20354;-68
2023/01/12 04:14:39;;;;;;;7.90;1.97;;;;;;;10.86;69.47;100678.72;5029524;28;20210;-68
2023/01/12 04:17:08;;;;;;;7.10;1.67;;;;;;;10.78;69.93;100670.66;5024315;28;21009;-69
2023/01/12 04:19:38;;;;;;;15.57;2.67;;;;;;;10.84;69.80;100667.41;5024494;28;20214;-68
2023/01/12 04:24:51;;;;;;;9.83;2.20;;;;;;;10.82;70.10;100666.72;5027806;28;20215;-71
2023/01/12 04:27:19;;;;;;;11.10;1.70;;;;;;;10.85;70.02;100668.25;5026162;28;20238;-68
2023/01/12 04:29:46;;;;;;;9.60;1.87;;;;;;;10.89;69.50;100667.81;5026577;28;20317;-66
2023/01/12 04:32:14;;;;;;;14.70;2.13;;;;;;;10.88;69.74;100663.50;5028005;28;20673;-67
2023/01/12 04:34:43;;;;;;;11.93;1.70;;;;;;;10.93;69.60;100650.63;5031536;28;20307;-68
2023/01/12 04:37:11;;;;;;;13.50;2.03;;;;;;;10.90;69.36;100650.94;5024742;28;20288;-70
2023/01/12 04:39:39;;;;;;;10.57;2.10;;;;;;;10.87;69.87;100660.97;5027293;28;20215;-69
2023/01/12 04:42:59;;;;;;;7.47;1.50;;;;;;;10.81;69.69;100653.63;5025626;28;20234;-70
2023/01/12 04:44:55;;;;;;;6.93;1.60;;;;;;;10.84;69.83;100650.66;5019678;28;21117;-70
2023/01/12 04:47:26;;;;;;;10.70;2.20;;;;;;;10.89;69.84;100659.03;5019980;28;21376;-69
2023/01/12 04:49:55;;;;;;;12.77;2.17;;;;;;;10.90;69.43;100650.94;5023164;28;20211;-71
2023/01/12 04:52:22;;;;;;;7.87;1.57;;;;;;;10.87;69.57;100650.38;5024817;28;20206;-70
2023/01/12 04:54:50;;;;;;;8.87;1.40;;;;;;;10.88;69.73;100642.28;5026297;28;20754;-69
2023/01/12 04:57:18;;;;;;;11.50;1.80;;;;;;;10.90;69.67;100639.47;5023531;28;20210;-70
2023/01/12 04:59:45;;;;;;;10.83;1.77;;;;;;;10.85;69.90;100642.56;5022567;28;20906;-71
2023/01/12 05:02:13;;;;;;;15.10;2.30;;;;;;;10.90;70.09;100639.47;5023913;28;20226;-70
2023/01/12 05:04:41;;;;;;;18.63;2.37;;;;;;;10.93;69.89;100639.16;5025694;28;20696;-67
2023/01/12 05:07:10;;;;;;;7.20;1.53;;;;;;;10.98;69.75;100633.44;5026066;28;20240;-69
2023/01/12 05:12:24;;;;;;;11.00;2.00;;;;;;;10.98;69.59;100628.13;5025321;28;20843;-71
2023/01/12 05:14:52;;;;;;;9.63;1.93;;;;;;;10.96;69.51;100630.09;5025966;28;20215;-69
2023/01/12 05:17:19;;;;;;;9.63;1.83;;;;;;;10.90;69.58;100616.44;5025607;28;20833;-69
2023/01/12 05:19:48;;;;;;;11.33;1.67;;;;;;;10.86;69.78;100601.78;5025764;28;20211;-71
2023/01/12 05:22:17;;;;;;;10.83;2.40;;;;;;;10.87;69.79;100600.81;5027383;28;20241;-69
2023/01/12 05:24:45;;;;;;;5.50;1.43;;;;;;;10.81;69.66;100593.44;5024659;28;20521;-70
2023/01/12 05:27:13;;;;;;;8.40;1.60;;;;;;;10.86;69.25;100585.88;5023583;28;20836;-67
2023/01/12 05:29:40;;;;;;;13.67;1.90;;;;;;;10.86;69.48;100596.47;5024850;28;20210;-70
2023/01/12 05:32:08;;;;;;;8.90;1.90;;;;;;;10.83;69.66;100582.66;5022837;28;20234;-70
2023/01/12 05:34:36;;;;;;;11.67;1.60;;;;;;;10.88;69.18;100568.00;5026179;28;20217;-67
2023/01/12 05:37:03;;;;;;;11.10;1.77;;;;;;;10.87;69.41;100571.63;5029832;28;20225;-68
2023/01/12 05:39:33;;;;;;;6.67;0.90;;;;;;;10.88;69.05;100560.03;5025753;28;20230;-71
2023/01/12 05:44:46;;;;;;;9.57;1.57;;;;;;;10.96;68.59;100561.94;5025526;28;20308;-70
2023/01/12 05:47:13;;;;;;;8.73;1.20;;;;;;;10.92;68.94;100548.13;5022432;28;20565;-70
2023/01/12 05:49:41;;;;;;;9.70;1.60;;;;;;;10.93;68.72;100544.50;5026773;28;20212;-68
2023/01/12 05:52:09;;;;;;;5.90;1.10;;;;;;;10.94;68.70;100546.16;5026808;28;20218;-71
2023/01/12 05:54:38;;;;;;;7.43;1.73;;;;;;;10.94;68.91;100538.19;5019608;28;20218;-67
2023/01/12 05:57:06;;;;;;;9.43;1.20;;;;;;;10.96;69.15;100548.66;5027272;28;20220;-68
2023/01/12 05:59:33;;;;;;;8.30;1.60;;;;;;;10.97;69.19;100537.09;5025515;28;20210;-66
2023/01/12 06:02:01;;;;;;;6.97;1.57;;;;;;;11.02;68.96;100555.19;5028317;28;20215;-69
2023/01/12 06:04:30;;;;;;;7.43;1.43;;;;;;;10.94;69.07;100551.47;5029540;28;20272;-69
2023/01/12 06:06:58;;;;;;;10.20;2.17;;;;;;;10.96;68.96;100550.50;5027056;28;21036;-70
2023/01/12 06:09:26;;;;;;;6.60;1.37;;;;;;;10.90;69.36;100539.50;5024748;28;20216;-72
2023/01/12 06:14:40;;;;;;;6.20;1.23;;;;;;;10.93;69.23;100549.78;5025975;28;21001;-71
2023/01/12 06:17:08;;;;;;;9.20;1.53;;;;;;;11.02;68.74;100544.56;5028024;28;20667;-70
2023/01/12 06:19:36;;;;;;;11.97;1.93;;;;;;;10.92;69.27;100540.16;5026782;28;20746;-69
2023/01/12 06:22:04;;;;;;;11.67;2.10;;;;;;;10.96;69.47;100537.22;5028083;28;20221;-71
2023/01/12 06:24:32;;;;;;;10.80;1.97;;;;;;;10.94;69.33;100537.38;5024990;28;20214;-69
2023/01/12 06:27:01;;;;;;;9.07;2.10;;;;;;;10.84;69.41;100529.47;5024977;28;20211;-71
2023/01/12 06:29:29;;;;;;;12.23;2.23;;;;;;;10.90;69.06;100531.53;5026916;28;20238;-71
2023/01/12 06:31:56;;;;;;;8.30;1.50;;;;;;;10.94;68.85;100535.56;5024002;28;20211;-69
2023/01/12 06:34:24;;;;;;;11.50;1.80;;;;;;;10.97;69.05;100537.09;5024963;28;20214;-69
2023/01/12 06:36:52;;;;;;;8.93;1.67;;;;;;;10.93;69.20;100536.53;5023346;28;20223;-71
2023/01/12 06:39:20;;;;;;;12.20;1.80;;;;;;;10.98;69.27;100548.53;5028288;28;20203;-68
2023/01/12 06:44:34;;;;;;;10.57;2.20;;;;;;;11.06;69.01;100545.97;5026447;28;20233;-71
2023/01/12 06:47:02;;;;;;;10.97;1.73;;;;;;;11.08;69.00;100528.09;5027705;28;20293;-70
2023/01/12 06:49:29;;;;;;;9.13;1.50;;;;;;;11.12;68.93;100519.66;5026050;28;20229;-72
2023/01/12 06:51:57;;;;;;;6.50;1.33;;;;;;;11.17;68.67;100509.41;5027685;28;20550;-71
2023/01/12 06:54:25;;;;;;;7.83;1.93;;;;;;;11.17;68.63;100514.72;5029937;28;20204;-71
2023/01/12 06:56:54;;;;;;;11.07;1.80;;;;;;;11.05;69.01;100505.31;5025738;28;20238;-69
2023/01/12 06:59:21;;;;;;;6.03;1.27;;;;;;;11.02;69.22;100507.44;5029269;28;20830;-71
2023/01/12 07:01:51;;;;;;;8.73;1.73;;;;;;;11.03;69.43;100501.13;5029498;28;20203;-69
2023/01/12 07:04:19;;;;;;;12.97;2.50;;;;;;;10.94;69.53;100493.09;5029555;28;20231;-70
2023/01/12 07:06:47;;;;;;;7.93;1.73;;;;;;;10.93;69.70;100507.34;5025538;28;20243;-69
2023/01/12 07:09:14;;;;;;;7.73;1.50;;;;;;;10.94;69.78;100503.72;5027526;28;20209;-67
2023/01/12 07:11:42;;;;;;;7.67;1.50;;;;;;;10.87;70.85;100488.53;5026785;28;20238;-67
2023/01/12 07:14:10;;;;;;;12.63;1.80;;;;;;;10.83;71.78;100485.34;5025160;28;20268;-67
2023/01/12 07:16:39;;;;;;;12.77;1.97;;;;;;;10.76;73.13;100486.94;5022250;28;20301;-71
2023/01/12 07:19:08;;;;;;;13.13;2.10;;;;;;;10.76;74.58;100507.31;5031144;28;20214;-71
2023/01/12 07:21:36;;;;;;;7.47;2.30;;;;;;;10.71;73.22;100506.94;5025854;28;21222;-68
2023/01/12 07:24:04;;;;;;;9.67;1.87;;;;;;;10.63;73.55;100517.44;5023720;28;20235;-68
2023/01/12 07:26:31;;;;;;;9.40;1.67;;;;;;;10.68;73.32;100513.38;5026182;28;20707;-66
2023/01/12 07:28:59;;;;;;;6.83;1.47;;;;;;;10.71;72.48;100515.72;5025492;28;20211;-67
2023/01/12 07:31:27;;;;;;;9.03;1.57;;;;;;;10.70;72.53;100516.72;5019273;28;20318;-67
2023/01/12 07:33:55;;;;;;;8.43;2.20;;;;;;;10.66;73.13;100507.38;5029999;28;20252;-68
2023/01/12 07:36:25;;;;;;;14.23;2.03;;;;;;;10.62;73.40;100495.41;5026347;28;20640;-68
2023/01/12 07:38:53;;;;;;;8.20;1.60;;;;;;;10.55;74.16;100483.72;5025824;28;20274;-68
2023/01/12 07:44:06;;;;;;;13.90;2.50;;;;;;;10.47;74.85;100488.88;5030420;28;20280;-65
2023/01/12 07:46:34;;;;;;;9.90;1.73;;;;;;;10.46;75.10;100497.84;5028853;28;20239;-66
2023/01/12 07:49:02;;;;;;;13.33;2.20;;;;;;;10.46;75.46;100489.91;5035202;28;20242;-67
2023/01/12 07:51:31;;;;;;;10.00;1.93;;;;;;;10.46;75.28;100487.25;5029688;28;20224;-66
2023/01/12 07:53:59;;;;;;;8.70;1.40;;;;;;;10.55;74.72;100491.66;5030374;28;20209;-67
2023/01/12 07:56:27;;;;;;;8.00;1.37;;;;;;;10.59;74.42;100471.81;5032010;28;20341;-66
2023/01/12 07:58:56;;;;;;;10.80;2.00;;;;;;;10.57;74.91;100484.38;5034679;28;20428;-67
2023/01/12 08:01:24;;;;;;;11.03;2.20;;;;;;;10.53;75.24;100483.03;5033080;28;20210;-66
2023/01/12 08:03:52;;;;;;;10.17;1.93;;;;;;;10.46;75.72;100481.94;5029914;28;20394;-66
2023/01/12 08:06:20;;;;;;;12.93;3.07;;;;;;;10.41;76.41;100470.94;5031655;28;20240;-66
2023/01/12 08:08:50;;;;;;;10.77;2.20;;;;;;;10.42;76.43;100460.19;5032523;28;20220;-66
2023/01/12 08:11:18;;;;;;;9.10;1.70;;;;;;;10.46;76.25;100466.03;5031883;28;20209;-66
2023/01/12 08:13:45;;;;;;;10.27;1.90;;;;;;;10.46;76.47;100474.00;5029022;28;20240;-66
2023/01/12 08:16:18;;;;;;;9.73;2.20;;;;;;;10.43;77.04;100476.94;5033100;28;20229;-67
2023/01/12 08:18:52;;;;;;;6.20;2.00;;;;;;;10.52;76.97;100486.66;5031866;28;20215;-66
2023/01/12 08:21:24;;;;;;;7.30;1.73;;;;;;;10.60;76.68;100485.91;5031153;28;20590;-67
2023/01/12 08:23:56;;;;;;;8.93;1.43;;;;;;;10.63;76.80;100488.28;5030924;28;20230;-67
2023/01/12 08:26:29;;;;;;;6.43;1.30;;;;;;;10.72;76.47;100492.69;5035269;28;20600;-66
2023/01/12 08:29:02;;;;;;;4.83;1.03;;;;;;;10.69;76.83;100488.50;5028993;28;20230;-67
2023/01/12 08:31:32;;;;;;;4.17;1.00;;;;;;;10.76;76.53;100488.75;5030095;28;20782;-66
2023/01/12 08:34:10;;;;;;;5.97;1.00;;;;;;;10.71;77.06;100488.38;5030087;28;20939;-67
2023/01/12 08:36:41;;;;;;;4.20;0.80;;;;;;;10.75;76.56;100484.41;5028198;28;20957;-67
2023/01/12 08:39:12;;;;;;;1.60;0.67;;;;;;;10.76;76.11;100478.97;5029183;28;20210;-66
2023/01/12 08:41:41;;;;;;;3.23;0.50;;;;;;;10.72;75.77;100477.63;5027486;28;20218;-66
2023/01/12 08:44:09;;;;;;;3.70;0.60;;;;;;;10.79;75.42;100483.16;5029790;28;20241;-67
2023/01/12 08:46:40;;;;;;;4.47;0.90;;;;;;;10.92;75.09;100478.31;5022795;28;20270;-65
2023/01/12 08:49:10;;;;;;;4.63;0.90;;;;;;;10.97;73.97;100475.22;5029629;28;20703;-65
2023/01/12 08:51:44;;;;;;;2.90;0.67;;;;;;;10.98;73.45;100479.53;5029205;28;20219;-66
2023/01/12 08:54:17;;;;;;;5.30;1.13;;;;;;;11.00;73.43;100490.81;5029625;28;20237;-66
2023/01/12 08:56:45;;;;;;;1.83;0.40;;;;;;;11.00;73.09;100482.84;5027429;28;20681;-66
2023/01/12 08:59:13;;;;;;;5.17;1.20;;;;;;;11.05;72.71;100486.75;5035550;28;20225;-67
2023/01/12 09:01:42;;;;;;;4.57;0.80;;;;;;;11.08;72.54;100489.09;5040190;28;20212;-67
2023/01/12 09:04:10;;;;;;;3.33;0.60;;;;;;;11.11;72.42;100477.34;5035493;28;20233;-67
2023/01/12 09:06:39;;;;;;;3.13;0.80;;;;;;;11.10;72.69;100492.44;5035381;28;20559;-66
2023/01/12 09:09:09;;;;;;;2.70;0.70;;;;;;;11.19;72.89;100496.00;5036736;28;20249;-66
2023/01/12 09:11:42;;;;;;;5.90;0.80;;;;;;;11.18;72.72;100495.16;5034366;28;20305;-67
2023/01/12 09:14:10;;;;;;;4.13;0.90;;;;;;;11.24;72.61;100499.03;5033739;28;20208;-67
2023/01/12 09:16:38;;;;;;;3.17;0.87;;;;;;;11.21;72.57;100499.34;5030862;28;20213;-67
2023/01/12 09:19:07;;;;;;;2.50;0.70;;;;;;;11.20;72.39;100502.97;5029274;28;20234;-66
2023/01/12 09:21:37;;;;;;;3.37;0.73;;;;;;;11.20;72.50;100508.28;5031602;28;20277;-67
2023/01/12 09:24:06;;;;;;;4.67;0.73;;;;;;;11.23;72.62;100522.09;5032801;28;20222;-67
2023/01/12 09:26:38;;;;;;;5.47;0.80;;;;;;;11.27;72.48;100517.31;5030832;28;20212;-67
2023/01/12 09:29:08;;;;;;;4.03;1.00;;;;;;;11.22;72.39;100507.16;5032686;28;20323;-66
2023/01/12 09:31:37;;;;;;;4.40;0.97;;;;;;;11.21;73.14;100509.94;5033020;28;20696;-66
2023/01/12 09:34:05;;;;;;;3.23;0.80;;;;;;;11.20;73.44;100519.72;5031511;28;20243;-67
2023/01/12 09:36:35;;;;;;;6.00;0.90;;;;;;;11.24;73.23;100509.66;5029147;28;20219;-66
2023/01/12 09:39:04;;;;;;;5.27;0.97;;;;;;;11.26;73.15;100508.50;5029296;28;20230;-66
2023/01/12 09:47:21;;;;;;;6.33;1.17;;;;;;;11.28;73.54;100495.09;5026651;28;20236;-69
2023/01/12 09:49:54;;;;;;;7.27;1.00;;;;;;;11.36;73.25;100503.13;5027111;28;20212;-68
2023/01/12 09:52:39;;;;;;;4.03;1.00;;;;;;;11.39;72.88;100505.47;5030848;28;20213;-68
2023/01/12 09:55:14;;;;;;;8.50;1.17;;;;;;;11.39;72.93;100496.69;5030171;28;20622;-69
2023/01/12 09:58:05;;;;;;;3.43;0.90;;;;;;;11.44;72.38;100505.84;5031396;28;20231;-69
2023/01/12 10:00:34;;;;;;;9.27;1.73;;;;;;;11.36;72.48;100500.47;5029906;28;20745;-69
2023/01/12 10:03:24;;;;;;;4.60;1.20;;;;;;;11.42;72.04;100501.69;5031095;28;20219;-69
2023/01/12 10:05:54;;;;;;;13.27;1.30;;;;;;;11.50;71.80;100520.34;5028936;28;20285;-70
2023/01/12 10:08:31;;;;;;;4.17;0.97;;;;;;;11.52;72.00;100513.88;5025813;28;20239;-70
2023/01/12 10:11:10;;;;;;;7.10;1.10;;;;;;;11.56;71.40;100514.41;5027460;28;21098;-69
2023/01/12 10:14:02;;;;;;;4.50;0.70;;;;;;;11.58;71.17;100500.00;5031052;28;20200;-69
2023/01/12 10:16:38;;;;;;;3.23;0.80;;;;;;;11.62;70.42;100503.16;5026141;28;20212;-69
2023/01/12 10:19:14;;;;;;;7.63;0.80;;;;;;;11.53;70.96;100499.63;5028818;28;20204;-69
2023/01/12 10:21:43;;;;;;;6.17;0.80;;;;;;;11.58;70.71;100497.34;5028977;28;20299;-70
2023/01/12 10:24:12;;;;;;;6.70;0.93;;;;;;;11.63;70.84;100489.75;5031088;28;20735;-70
2023/01/12 10:26:42;;;;;;;6.27;0.80;;;;;;;11.67;70.47;100501.75;5029810;28;20225;-68
2023/01/12 10:29:12;;;;;;;4.10;1.00;;;;;;;11.68;70.28;100492.78;5024591;28;20230;-68
2023/01/12 10:31:41;;;;;;;3.83;0.90;;;;;;;11.65;70.49;100498.41;5026262;28;20208;-68
2023/01/12 10:34:12;;;;;;;5.47;0.97;;;;;;;11.61;70.61;100486.41;5026460;28;20215;-69
2023/01/12 10:36:48;;;;;;;2.63;0.80;;;;;;;11.69;70.40;100494.47;5027364;28;20739;-69
2023/01/12 10:39:33;;;;;;;6.70;1.00;;;;;;;11.70;70.52;100485.47;5027424;28;20941;-67
2023/01/12 10:45:15;;;;;;;2.73;0.50;;;;;;;11.61;70.46;100475.78;5026711;28;20224;-67
2023/01/12 10:47:46;;;;;;;7.27;1.33;;;;;;;11.72;70.10;100476.53;5027057;28;20234;-70
2023/01/12 10:50:26;;;;;;;5.63;0.50;;;;;;;11.77;70.07;100484.91;5029134;28;20208;-70
2023/01/12 10:52:59;;;;;;;4.43;0.63;;;;;;;11.76;69.96;100481.41;5034013;28;20212;-69
2023/01/12 10:55:32;;;;;;;5.47;0.40;;;;;;;11.75;69.57;100478.91;5029995;28;20200;-70
2023/01/12 10:58:00;;;;;;;7.67;0.63;;;;;;;11.82;69.93;100488.75;5029004;28;20274;-69
2023/01/12 11:00:29;;;;;;;2.07;0.40;;;;;;;11.92;69.25;100496.63;5030325;28;20201;-68
2023/01/12 11:02:58;;;;;;;4.23;0.60;;;;;;;11.90;69.33;100488.81;5031423;28;20216;-71
2023/01/12 11:05:30;;;;;;;3.27;0.50;;;;;;;11.89;69.46;100500.41;5027234;28;20238;-69
2023/01/12 11:07:58;;;;;;;2.87;0.63;;;;;;;11.85;69.46;100493.78;5029674;28;20242;-70
2023/01/12 11:10:29;;;;;;;2.23;0.40;;;;;;;11.85;69.91;100492.94;5030726;28;20575;-68
2023/01/12 11:12:58;;;;;;;1.33;0.40;;;;;;;11.82;69.89;100501.19;5029177;28;20240;-67
2023/01/12 11:15:28;;;;;;;2.47;0.53;;;;;;;11.81;69.78;100507.50;5027171;28;20577;-68
2023/01/12 11:18:16;;;;;;;2.80;0.40;;;;;;;11.88;70.04;100500.56;5032577;28;20207;-68
2023/01/12 11:20:48;;;;;;;0.93;0.40;;;;;;;11.89;70.31;100499.59;5033185;28;20215;-67
2023/01/12 11:23:23;;;;;;;1.53;0.30;;;;;;;11.90;69.85;100491.47;5032635;28;20232;-68
2023/01/12 11:25:53;;;;;;;2.47;0.40;;;;;;;11.82;70.70;100490.56;5036021;28;20231;-67
2023/01/12 11:28:28;;;;;;;1.30;0.43;;;;;;;11.80;70.91;100484.56;5033217;28;20241;-67
2023/01/12 11:31:00;;;;;;;1.93;0.40;;;;;;;11.86;70.99;100474.19;5032368;28;20614;-67
2023/01/12 11:33:36;;;;;;;0.43;0.20;;;;;;;11.90;70.95;100474.69;5035495;28;20215;-68
2023/01/12 11:36:06;;;;;;;2.93;0.47;;;;;;;11.93;70.85;100475.22;5036356;28;20301;-66
2023/01/12 11:38:37;;;;;;;1.27;0.40;;;;;;;12.05;70.77;100476.59;5032566;28;20232;-68
2023/01/12 11:41:09;;;;;;;1.40;0.40;;;;;;;12.09;70.74;100473.63;5033270;28;20213;-68
2023/01/12 11:43:54;;;;;;;1.07;0.40;;;;;;;12.08;71.24;100462.19;5030181;28;20872;-68
2023/01/12 11:46:26;;;;;;;1.20;0.20;;;;;;;12.09;71.17;100455.03;5031345;28;20252;-68
2023/01/12 11:49:03;;;;;;;1.57;0.50;;;;;;;12.06;71.39;100448.19;5028871;28;20568;-68
2023/01/12 11:51:30;;;;;;;1.57;0.60;;;;;;;12.06;71.44;100448.19;5027324;28;20215;-67
2023/01/12 11:53:59;;;;;;;1.43;0.50;;;;;;;11.98;71.76;100448.16;5031704;28;20227;-66
2023/01/12 11:57:08;;;;;;;2.37;0.53;;;;;;;12.02;71.85;100457.50;5035383;28;20209;-67
2023/01/12 11:59:41;;;;;;;2.53;0.60;;;;;;;11.99;72.37;100441.84;4999342;28;20222;-67
2023/01/12 12:02:31;;;;;;;1.70;0.60;;;;;;;11.97;72.53;100433.19;5033701;28;20212;-66
2023/01/12 12:05:09;;;;;;;1.10;0.40;;;;;;;11.94;72.60;100434.38;5030349;28;20213;-67
2023/01/12 12:07:54;;;;;;;3.47;0.67;;;;;;;11.85;73.20;100440.63;5031317;28;20248;-67
2023/01/12 12:10:26;;;;;;;4.70;0.50;;;;;;;11.84;73.05;100443.44;5035002;28;20219;-68
2023/01/12 12:13:26;;;;;;;2.20;0.50;;;;;;;11.88;72.65;100428.84;5032749;28;20235;-67
2023/01/12 12:16:04;;;;;;;0.60;0.30;;;;;;;11.91;72.32;100420.56;5016963;28;20896;-68
2023/01/12 12:18:45;;;;;;;2.73;0.50;;;;;;;11.90;73.05;100429.50;5031611;28;20317;-68